Time;durP1;ratioP1;P1;durP2;ratioP2;P2;SDS_P1;SDS_P2;PMS_P1;PMS_P2;Temp;Humidity;BMP_temperature;BMP_pressure;BME280_temperature;BME280_humidity;BME280_pressure;Samples;Min_cycle;Max_cycle;Signal;HPM_P1;HPM_P2
2023/12/01 00:02:12;;;;;;;2.87;2.67;;;6.70;82.70;;;;;;4943941;29;20208;-90
2023/12/01 00:04:46;;;;;;;1.57;1.47;;;6.80;82.80;;;;;;4944782;29;20198;-89
2023/12/01 00:07:20;;;;;;;4.83;4.40;;;6.80;82.90;;;;;;4948716;29;20340;-90
2023/12/01 00:09:53;;;;;;;4.93;2.93;;;6.80;82.90;;;;;;4948289;29;20258;-90
2023/12/01 00:12:27;;;;;;;1.70;1.60;;;6.80;82.90;;;;;;4953033;29;20207;-91
2023/12/01 00:14:59;;;;;;;5.60;3.97;;;6.80;82.90;;;;;;4948555;29;20195;-90
2023/12/01 00:17:28;;;;;;;6.40;3.33;;;6.80;82.90;;;;;;4951207;29;20226;-91
2023/12/01 00:20:00;;;;;;;4.00;3.40;;;6.80;82.90;;;;;;4943137;29;20226;-91
2023/12/01 00:22:31;;;;;;;2.77;2.57;;;6.90;83.00;;;;;;4948678;29;20203;-91
2023/12/01 00:25:02;;;;;;;7.13;4.83;;;6.90;83.00;;;;;;4950186;29;20631;-90
2023/12/01 00:27:36;;;;;;;5.73;3.67;;;6.90;83.00;;;;;;4954527;29;20226;-89
2023/12/01 00:30:08;;;;;;;4.40;4.10;;;6.90;83.20;;;;;;4952134;29;20215;-91
2023/12/01 00:32:38;;;;;;;2.63;2.13;;;6.90;83.20;;;;;;4949581;29;20619;-93
2023/12/01 00:35:09;;;;;;;6.80;3.40;;;6.90;83.20;;;;;;4957298;29;20202;-90
2023/12/01 00:37:50;;;;;;;4.83;3.93;;;7.00;83.30;;;;;;4946515;29;20195;-91
2023/12/01 00:40:24;;;;;;;3.23;2.90;;;7.00;83.30;;;;;;4949278;29;20206;-90
2023/12/01 00:42:54;;;;;;;3.90;2.93;;;7.00;83.30;;;;;;4944445;29;20639;-90
2023/12/01 00:45:28;;;;;;;3.37;3.13;;;7.10;83.30;;;;;;4949581;29;20790;-91
2023/12/01 00:48:07;;;;;;;8.53;3.63;;;7.10;83.30;;;;;;4950979;29;20234;-90
2023/12/01 00:50:48;;;;;;;2.50;2.30;;;7.00;83.30;;;;;;4946654;29;20222;-91
2023/12/01 00:53:18;;;;;;;6.57;3.00;;;7.10;83.30;;;;;;4960800;29;20197;-91
2023/12/01 00:55:48;;;;;;;4.73;3.57;;;7.10;83.30;;;;;;4946187;29;20254;-90
2023/12/01 00:58:16;;;;;;;6.67;3.03;;;7.00;83.20;;;;;;4944570;29;20199;-90
2023/12/01 01:00:50;;;;;;;8.60;4.53;;;7.10;83.30;;;;;;4943363;29;20210;-90
2023/12/01 01:03:20;;;;;;;6.43;2.93;;;7.00;83.30;;;;;;4945033;29;20721;-90
2023/12/01 01:05:51;;;;;;;4.73;3.70;;;7.10;83.40;;;;;;4943571;29;20199;-89
2023/12/01 01:08:24;;;;;;;4.70;3.47;;;7.00;83.30;;;;;;4946256;29;20199;-92
2023/12/01 01:10:54;;;;;;;3.50;2.90;;;7.00;83.30;;;;;;4950221;29;20262;-90
2023/12/01 01:13:27;;;;;;;8.63;3.77;;;7.00;83.30;;;;;;4928438;29;20194;-90
2023/12/01 01:16:05;;;;;;;4.97;4.30;;;7.10;83.30;;;;;;4945410;29;20202;-90
2023/12/01 01:18:41;;;;;;;3.03;2.73;;;7.10;83.30;;;;;;4941792;29;20241;-90
2023/12/01 01:21:11;;;;;;;9.80;4.20;;;7.10;83.30;;;;;;4940916;29;20607;-92
2023/12/01 01:23:54;;;;;;;6.17;4.80;;;7.10;83.40;;;;;;4942694;29;20262;-90
2023/12/01 01:26:25;;;;;;;4.87;3.07;;;7.10;83.50;;;;;;4931342;29;20206;-89
2023/12/01 01:28:54;;;;;;;6.43;5.17;;;7.10;83.50;;;;;;4924414;29;20212;-90
2023/12/01 01:31:28;;;;;;;5.80;3.93;;;7.10;83.60;;;;;;4929403;29;20231;-92
2023/12/01 01:33:57;;;;;;;10.63;4.07;;;7.00;83.60;;;;;;4948729;29;20273;-92
2023/12/01 01:36:31;;;;;;;5.50;3.77;;;7.10;83.70;;;;;;4948593;29;20289;-92
2023/12/01 01:39:06;;;;;;;4.40;3.40;;;7.10;83.80;;;;;;4943264;29;20229;-92
2023/12/01 01:41:37;;;;;;;3.90;3.60;;;7.00;83.80;;;;;;4930024;29;20286;-89
2023/12/01 01:44:08;;;;;;;3.83;3.53;;;7.00;83.90;;;;;;4942855;29;20207;-93
2023/12/01 01:46:46;;;;;;;5.93;4.10;;;7.00;83.90;;;;;;4944600;29;20199;-90
2023/12/01 01:49:23;;;;;;;3.47;3.27;;;7.00;84.00;;;;;;4935136;29;20226;-91
2023/12/01 01:52:04;;;;;;;6.67;4.33;;;6.90;83.90;;;;;;4924327;29;20199;-90
2023/12/01 01:54:38;;;;;;;4.27;3.77;;;6.90;84.00;;;;;;4952107;29;20198;-91
2023/12/01 01:57:12;;;;;;;2.77;2.57;;;6.90;84.00;;;;;;4943788;29;20677;-88
2023/12/01 01:59:48;;;;;;;4.73;3.73;;;6.90;84.00;;;;;;4947630;29;20198;-88
2023/12/01 02:02:37;;;;;;;2.83;1.70;;;6.90;83.90;;;;;;4946607;29;20204;-89
2023/12/01 02:05:19;;;;;;;6.77;4.83;;;6.90;83.90;;;;;;4949106;29;20586;-90
2023/12/01 02:07:49;;;;;;;5.23;4.73;;;6.90;83.90;;;;;;4940033;29;20309;-91
2023/12/01 02:10:34;;;;;;;4.43;4.07;;;6.90;83.90;;;;;;4948588;29;20233;-90
2023/12/01 02:13:10;;;;;;;5.80;4.00;;;6.90;83.90;;;;;;4947620;29;22192;-91
2023/12/01 02:15:40;;;;;;;9.13;5.33;;;6.90;84.10;;;;;;4945063;29;20562;-90
2023/12/01 02:18:25;;;;;;;3.13;2.50;;;6.90;84.00;;;;;;4944791;29;20215;-90
2023/12/01 02:20:55;;;;;;;6.50;5.07;;;6.90;84.00;;;;;;4945686;29;20321;-92
2023/12/01 02:23:36;;;;;;;13.17;4.23;;;6.90;83.90;;;;;;4943932;29;20290;-92
2023/12/01 02:26:09;;;;;;;3.60;2.73;;;6.90;84.00;;;;;;4945503;29;20231;-89
2023/12/01 02:28:39;;;;;;;4.80;4.13;;;6.80;84.00;;;;;;4931614;29;20616;-91
2023/12/01 02:31:08;;;;;;;8.07;5.80;;;6.80;84.10;;;;;;4938796;29;20227;-91
2023/12/01 02:33:37;;;;;;;3.53;2.77;;;6.80;84.10;;;;;;4944490;29;20644;-91
2023/12/01 02:36:08;;;;;;;6.13;3.67;;;6.80;84.10;;;;;;4938043;29;20225;-90
2023/12/01 02:38:45;;;;;;;2.60;2.40;;;6.80;84.10;;;;;;4929840;29;20199;-91
2023/12/01 02:41:18;;;;;;;6.67;3.53;;;6.70;84.20;;;;;;4943962;29;20288;-90
2023/12/01 02:43:48;;;;;;;14.90;4.77;;;6.70;84.20;;;;;;4949565;29;20658;-91
2023/12/01 02:46:27;;;;;;;6.93;4.57;;;6.70;84.20;;;;;;4943514;29;20207;-91
2023/12/01 02:49:04;;;;;;;6.20;5.40;;;6.70;84.30;;;;;;4940735;29;20634;-90
2023/12/01 02:51:46;;;;;;;5.23;4.70;;;6.60;84.30;;;;;;4943318;29;20221;-91
2023/12/01 02:54:20;;;;;;;6.57;4.60;;;6.60;84.40;;;;;;4921096;29;20280;-91
2023/12/01 02:56:52;;;;;;;12.43;4.10;;;6.60;84.40;;;;;;4943480;29;20200;-91
2023/12/01 02:59:21;;;;;;;5.47;3.60;;;6.60;84.40;;;;;;4924747;29;20203;-91
2023/12/01 03:01:52;;;;;;;3.63;3.33;;;6.60;84.50;;;;;;4936659;29;20214;-90
2023/12/01 03:04:24;;;;;;;3.60;3.30;;;6.60;84.50;;;;;;4953330;29;20202;-91
2023/12/01 03:07:04;;;;;;;3.50;3.20;;;6.60;84.70;;;;;;4918687;29;20207;-91
2023/12/01 03:09:34;;;;;;;4.40;3.17;;;6.60;84.50;;;;;;4940390;29;20199;-90
2023/12/01 03:12:07;;;;;;;3.67;3.33;;;6.60;84.50;;;;;;4938316;29;20241;-91
2023/12/01 03:14:51;;;;;;;4.93;4.17;;;6.60;84.50;;;;;;4927325;29;20206;-91
2023/12/01 03:17:40;;;;;;;4.57;3.87;;;6.60;84.60;;;;;;4939702;29;20191;-91
2023/12/01 03:20:10;;;;;;;7.50;4.70;;;6.60;84.60;;;;;;4948129;29;20205;-89
2023/12/01 03:22:44;;;;;;;5.00;4.57;;;6.60;84.70;;;;;;4940289;29;20202;-92
2023/12/01 03:25:20;;;;;;;14.03;4.43;;;6.60;84.70;;;;;;4929389;29;20564;-90
2023/12/01 03:27:50;;;;;;;8.30;5.47;;;6.60;84.70;;;;;;4939679;28;20287;-89
2023/12/01 03:30:21;;;;;;;7.90;5.07;;;6.50;84.70;;;;;;4936873;29;20207;-91
2023/12/01 03:32:53;;;;;;;5.23;3.27;;;6.50;84.70;;;;;;4939001;29;20204;-90
2023/12/01 03:35:29;;;;;;;5.20;4.40;;;6.50;84.90;;;;;;4954620;29;20205;-90
2023/12/01 03:38:01;;;;;;;4.60;3.60;;;6.40;85.00;;;;;;4937746;29;20202;-91
2023/12/01 03:40:39;;;;;;;2.43;2.23;;;6.40;85.00;;;;;;4939663;29;20232;-89
2023/12/01 03:43:10;;;;;;;2.50;2.30;;;6.40;85.10;;;;;;4940406;29;20203;-90
2023/12/01 03:45:41;;;;;;;2.23;2.00;;;6.40;85.10;;;;;;4927778;29;20281;-89
2023/12/01 03:48:10;;;;;;;3.57;3.27;;;6.40;85.10;;;;;;4942442;29;20199;-91
2023/12/01 03:50:41;;;;;;;6.83;4.47;;;6.40;85.20;;;;;;4911430;29;20206;-89
2023/12/01 03:53:12;;;;;;;3.97;2.97;;;6.40;85.20;;;;;;4916894;29;20286;-90
2023/12/01 03:55:48;;;;;;;9.73;5.27;;;6.30;85.10;;;;;;4946422;29;20263;-90
2023/12/01 03:58:18;;;;;;;7.93;4.10;;;6.30;85.20;;;;;;4936753;29;20197;-90
2023/12/01 04:00:52;;;;;;;2.20;2.10;;;6.30;85.20;;;;;;4939749;29;20194;-90
2023/12/01 04:03:29;;;;;;;2.27;2.10;;;6.30;85.10;;;;;;4938181;29;20189;-89
2023/12/01 04:06:01;;;;;;;4.33;3.93;;;6.30;85.00;;;;;;4946792;29;20201;-90
2023/12/01 04:08:44;;;;;;;2.03;1.90;;;6.30;84.90;;;;;;4939265;29;20211;-91
2023/12/01 04:11:15;;;;;;;5.80;4.33;;;6.30;84.70;;;;;;4936850;29;20225;-91
2023/12/01 04:13:45;;;;;;;15.27;3.80;;;6.30;84.80;;;;;;4938603;29;20229;-91
2023/12/01 04:16:15;;;;;;;3.80;3.50;;;6.30;84.70;;;;;;4939570;29;20198;-91
2023/12/01 04:18:45;;;;;;;4.17;3.77;;;6.30;84.70;;;;;;4939758;29;20195;-90
2023/12/01 04:21:15;;;;;;;3.07;2.87;;;6.30;84.70;;;;;;4940322;29;20210;-88
2023/12/01 04:23:48;;;;;;;7.50;3.20;;;6.30;84.70;;;;;;4940969;29;20497;-91
2023/12/01 04:26:29;;;;;;;7.97;4.77;;;6.30;84.70;;;;;;4944652;29;20211;-90
2023/12/01 04:28:58;;;;;;;7.57;3.57;;;6.40;84.70;;;;;;4938190;29;20203;-90
2023/12/01 04:31:28;;;;;;;4.30;2.17;;;6.30;84.60;;;;;;4943090;29;20250;-91
2023/12/01 04:33:58;;;;;;;13.87;3.83;;;6.40;84.70;;;;;;4941666;29;20231;-91
2023/12/01 04:36:28;;;;;;;9.53;3.83;;;6.40;84.60;;;;;;4940252;29;20206;-91
2023/12/01 04:39:03;;;;;;;9.07;5.77;;;6.40;84.40;;;;;;4941605;29;20259;-89
2023/12/01 04:41:48;;;;;;;4.83;4.37;;;6.40;84.30;;;;;;4944821;29;20615;-90
2023/12/01 04:44:21;;;;;;;4.00;3.10;;;6.40;84.20;;;;;;4948716;29;20201;-90
2023/12/01 04:46:51;;;;;;;4.87;3.93;;;6.40;84.10;;;;;;4945858;29;20229;-89
2023/12/01 04:49:20;;;;;;;7.00;4.23;;;6.40;83.90;;;;;;4939642;29;20232;-90
2023/12/01 04:51:48;;;;;;;3.77;3.33;;;6.40;83.50;;;;;;4941422;29;20249;-91
2023/12/01 04:54:19;;;;;;;8.07;5.13;;;6.40;83.30;;;;;;4942788;29;20300;-91
2023/12/01 04:56:52;;;;;;;20.80;4.63;;;6.30;82.80;;;;;;4925114;29;20202;-92
2023/12/01 04:59:26;;;;;;;3.53;3.27;;;6.30;82.90;;;;;;4944019;29;20206;-90
2023/12/01 05:01:55;;;;;;;3.03;2.73;;;6.30;83.00;;;;;;4941800;29;20972;-89
2023/12/01 05:04:31;;;;;;;2.63;2.10;;;6.40;83.00;;;;;;4940282;29;20253;-89
2023/12/01 05:07:01;;;;;;;5.50;3.50;;;6.40;83.00;;;;;;4941578;29;20553;-89
2023/12/01 05:09:41;;;;;;;2.90;2.33;;;6.40;82.90;;;;;;4939528;29;20599;-92
2023/12/01 05:12:13;;;;;;;3.17;2.97;;;6.40;82.90;;;;;;4941804;29;20222;-90
2023/12/01 05:14:48;;;;;;;8.37;4.20;;;6.40;82.80;;;;;;4939624;29;20269;-90
2023/12/01 05:17:28;;;;;;;6.87;4.20;;;6.40;82.60;;;;;;4937741;29;20213;-89
2023/12/01 05:20:04;;;;;;;5.97;4.07;;;6.40;82.50;;;;;;4933260;29;20206;-90
2023/12/01 05:22:37;;;;;;;2.90;2.00;;;6.40;82.50;;;;;;4924400;29;20202;-92
2023/12/01 05:25:13;;;;;;;3.07;2.80;;;6.40;82.30;;;;;;4930837;29;20201;-91
2023/12/01 05:27:50;;;;;;;2.53;1.73;;;6.40;82.30;;;;;;4945738;29;20542;-91
2023/12/01 05:30:30;;;;;;;6.13;4.10;;;6.40;82.20;;;;;;4940831;29;20208;-91
2023/12/01 05:33:04;;;;;;;2.07;1.87;;;6.40;81.80;;;;;;4923223;29;20225;-92
2023/12/01 05:35:42;;;;;;;1.67;1.33;;;6.50;81.80;;;;;;4940931;29;20231;-89
2023/12/01 05:38:18;;;;;;;2.37;2.23;;;6.50;80.50;;;;;;4936520;29;20221;-91
2023/12/01 05:40:57;;;;;;;6.23;2.50;;;6.50;80.40;;;;;;4941678;29;20634;-91
2023/12/01 05:43:39;;;;;;;1.57;1.47;;;6.50;80.00;;;;;;4938732;29;20195;-91
2023/12/01 05:46:08;;;;;;;1.83;1.43;;;6.60;79.80;;;;;;4932015;29;20213;-89
2023/12/01 05:48:37;;;;;;;5.53;2.03;;;6.60;79.80;;;;;;4939379;29;20264;-89
2023/12/01 05:51:07;;;;;;;3.17;2.90;;;6.70;80.00;;;;;;4940510;29;20629;-91
2023/12/01 05:53:37;;;;;;;3.83;3.40;;;6.70;80.00;;;;;;4948545;28;20647;-89
2023/12/01 05:56:08;;;;;;;2.40;2.17;;;6.70;78.60;;;;;;4934846;29;20277;-91
2023/12/01 05:58:41;;;;;;;4.40;2.73;;;6.80;78.40;;;;;;4941191;29;20204;-87
2023/12/01 06:01:10;;;;;;;3.30;1.43;;;6.80;78.50;;;;;;4940627;29;20209;-91
2023/12/01 06:03:42;;;;;;;4.43;2.07;;;6.90;78.20;;;;;;4940198;29;20203;-88
2023/12/01 06:06:11;;;;;;;2.50;2.03;;;6.90;77.60;;;;;;4936236;29;20615;-89
2023/12/01 06:08:43;;;;;;;3.40;2.23;;;6.90;77.60;;;;;;4935864;29;20597;-90
2023/12/01 06:11:13;;;;;;;3.07;1.17;;;6.90;77.70;;;;;;4939424;29;20202;-92
2023/12/01 06:13:43;;;;;;;3.17;1.53;;;7.00;77.50;;;;;;4934581;28;20218;-90
2023/12/01 06:16:12;;;;;;;1.47;1.37;;;7.10;77.70;;;;;;4937501;29;20198;-91
2023/12/01 06:18:49;;;;;;;5.37;2.47;;;7.10;77.90;;;;;;4937406;29;20192;-91
2023/12/01 06:21:25;;;;;;;2.10;1.93;;;7.20;77.80;;;;;;4938463;29;20223;-92
2023/12/01 06:24:00;;;;;;;1.33;1.23;;;7.20;77.60;;;;;;4939226;29;20198;-90
2023/12/01 06:26:33;;;;;;;5.67;1.73;;;7.20;76.60;;;;;;4932088;29;20688;-90
2023/12/01 06:29:07;;;;;;;1.03;0.97;;;7.30;76.70;;;;;;4932398;29;20295;-89
2023/12/01 06:31:36;;;;;;;2.67;2.47;;;7.40;76.80;;;;;;4934137;29;20195;-91
2023/12/01 06:34:05;;;;;;;1.27;1.23;;;7.40;76.80;;;;;;4934856;29;20257;-89
2023/12/01 06:36:43;;;;;;;2.40;2.20;;;7.50;76.00;;;;;;4932509;29;20207;-90
2023/12/01 06:39:20;;;;;;;3.53;1.97;;;7.60;76.00;;;;;;4933240;29;20191;-91
2023/12/01 06:41:49;;;;;;;1.00;1.00;;;7.60;76.20;;;;;;4932780;29;20218;-92
2023/12/01 06:44:20;;;;;;;1.27;1.10;;;7.70;76.30;;;;;;4924838;29;20207;-91
2023/12/01 06:46:51;;;;;;;0.97;0.97;;;7.80;76.20;;;;;;4936444;29;20195;-89
2023/12/01 06:49:28;;;;;;;3.57;2.93;;;7.80;75.80;;;;;;4932780;29;20602;-89
2023/12/01 06:51:59;;;;;;;1.90;1.80;;;7.80;75.70;;;;;;4913657;29;20283;-87
2023/12/01 06:54:28;;;;;;;3.70;2.23;;;7.90;75.50;;;;;;4935070;29;20227;-87
2023/12/01 06:56:58;;;;;;;3.87;1.57;;;7.90;75.20;;;;;;4919327;29;20195;-90
2023/12/01 06:59:36;;;;;;;5.40;1.67;;;8.00;75.00;;;;;;4932320;29;20260;-94
2023/12/01 07:02:06;;;;;;;2.17;1.90;;;8.10;74.90;;;;;;4931094;29;20285;-92
2023/12/01 07:04:38;;;;;;;4.87;1.67;;;8.20;74.80;;;;;;4938657;29;20202;-90
2023/12/01 07:07:14;;;;;;;2.13;2.03;;;8.20;73.50;;;;;;4932899;29;20195;-92
2023/12/01 07:09:55;;;;;;;0.77;0.77;;;8.30;73.50;;;;;;4935538;29;20222;-92
2023/12/01 07:12:33;;;;;;;2.00;1.90;;;8.40;73.00;;;;;;4923353;29;20199;-92
2023/12/01 07:15:11;;;;;;;1.63;1.43;;;8.40;73.60;;;;;;4934396;29;20199;-89
2023/12/01 07:17:53;;;;;;;1.53;1.40;;;8.50;72.90;;;;;;4932502;29;20213;-87
2023/12/01 07:20:25;;;;;;;2.17;2.03;;;8.60;73.20;;;;;;4920634;29;20234;-91
2023/12/01 07:23:02;;;;;;;1.20;1.10;;;8.60;73.20;;;;;;4935563;29;20258;-88
2023/12/01 07:25:36;;;;;;;2.47;2.20;;;8.70;72.50;;;;;;4935205;29;20195;-90
2023/12/01 07:28:08;;;;;;;1.60;1.47;;;8.70;70.50;;;;;;4923562;29;20201;-88
2023/12/01 07:30:41;;;;;;;7.07;2.97;;;8.80;71.00;;;;;;4928358;29;20199;-88
2023/12/01 07:33:11;;;;;;;1.10;1.10;;;8.80;71.10;;;;;;4935247;29;20337;-87
2023/12/01 07:35:41;;;;;;;1.27;1.20;;;8.90;71.10;;;;;;4931947;29;20707;-88
2023/12/01 07:38:10;;;;;;;1.13;1.03;;;8.90;70.10;;;;;;4931439;29;20207;-90
2023/12/01 07:40:46;;;;;;;2.17;1.97;;;8.90;69.00;;;;;;4935149;29;20207;-91
2023/12/01 07:43:15;;;;;;;2.60;2.43;;;8.90;68.60;;;;;;4934960;29;20198;-90
2023/12/01 07:45:49;;;;;;;2.27;1.30;;;9.00;69.40;;;;;;4903077;29;20360;-92
2023/12/01 07:48:18;;;;;;;2.83;2.10;;;9.00;68.50;;;;;;4930418;29;20213;-89
2023/12/01 07:50:58;;;;;;;3.60;2.57;;;9.10;68.20;;;;;;4935486;29;20232;-91
2023/12/01 07:53:31;;;;;;;1.40;1.30;;;9.10;68.00;;;;;;4915282;29;20306;-88
2023/12/01 07:56:10;;;;;;;1.70;1.60;;;9.10;67.80;;;;;;4944057;29;20207;-91
2023/12/01 07:58:43;;;;;;;2.40;1.40;;;9.20;68.10;;;;;;4935189;29;20257;-89
2023/12/01 08:01:17;;;;;;;4.37;2.90;;;9.20;67.20;;;;;;4919772;29;20203;-90
2023/12/01 08:03:49;;;;;;;1.77;1.67;;;9.30;68.00;;;;;;4933965;29;20199;-86
2023/12/01 08:06:18;;;;;;;2.60;2.03;;;9.30;66.40;;;;;;4939014;29;20252;-89
2023/12/01 08:08:53;;;;;;;2.27;1.87;;;9.30;65.80;;;;;;4928740;29;20222;-90
2023/12/01 08:11:22;;;;;;;14.40;3.37;;;9.40;66.30;;;;;;4937497;29;20611;-92
2023/12/01 08:13:53;;;;;;;4.13;2.20;;;9.40;67.10;;;;;;4937408;29;20305;-93
2023/12/01 08:16:38;;;;;;;3.33;2.40;;;9.50;67.10;;;;;;4938499;29;20655;-86
2023/12/01 08:19:09;;;;;;;1.57;1.43;;;9.60;66.80;;;;;;4939933;29;20219;-88
2023/12/01 08:21:38;;;;;;;1.10;1.10;;;9.60;65.00;;;;;;4940493;29;20210;-92
2023/12/01 08:24:07;;;;;;;4.77;2.40;;;9.60;65.20;;;;;;4941281;29;20225;-90
2023/12/01 08:26:37;;;;;;;1.67;1.30;;;9.70;65.30;;;;;;4935744;29;20203;-91
2023/12/01 08:29:07;;;;;;;1.80;1.07;;;9.70;64.60;;;;;;4936974;29;20203;-92
2023/12/01 08:31:39;;;;;;;2.40;1.87;;;9.80;65.30;;;;;;4941460;29;20731;-91
2023/12/01 08:34:08;;;;;;;1.37;1.27;;;9.80;65.60;;;;;;4938834;29;20228;-89
2023/12/01 08:36:54;;;;;;;2.03;1.77;;;9.90;66.30;;;;;;4932433;29;20227;-90
2023/12/01 08:39:33;;;;;;;2.87;2.20;;;10.00;65.80;;;;;;4932961;29;20195;-89
2023/12/01 08:42:08;;;;;;;1.77;1.63;;;10.10;66.00;;;;;;4924563;29;20726;-88
2023/12/01 08:44:56;;;;;;;3.70;2.80;;;10.10;66.10;;;;;;4922025;29;20222;-92
2023/12/01 08:47:28;;;;;;;4.00;2.73;;;10.10;66.60;;;;;;4915980;29;20659;-88
2023/12/01 08:49:58;;;;;;;5.47;1.73;;;10.20;67.00;;;;;;4934755;29;20218;-90
2023/12/01 08:52:36;;;;;;;1.77;1.50;;;10.30;66.30;;;;;;4933575;29;20274;-90
2023/12/01 08:55:05;;;;;;;4.23;2.43;;;10.30;66.10;;;;;;4934105;29;20223;-86
2023/12/01 08:57:34;;;;;;;1.73;1.63;;;10.30;66.30;;;;;;4936965;29;20195;-87
2023/12/01 09:00:04;;;;;;;2.07;1.37;;;10.30;64.70;;;;;;4938504;29;20195;-88
2023/12/01 09:02:35;;;;;;;1.37;1.27;;;10.40;65.10;;;;;;4938820;29;20263;-88
2023/12/01 09:05:05;;;;;;;1.30;1.20;;;10.40;65.10;;;;;;4939872;29;20558;-85
2023/12/01 09:07:34;;;;;;;4.13;3.73;;;10.50;64.80;;;;;;4938578;29;20207;-89
2023/12/01 09:10:03;;;;;;;2.20;1.80;;;10.50;64.60;;;;;;4931961;29;20240;-86
2023/12/01 09:12:32;;;;;;;2.20;1.93;;;10.50;64.70;;;;;;4945548;29;20191;-84
2023/12/01 09:15:01;;;;;;;1.90;1.70;;;10.50;65.10;;;;;;4940210;29;20258;-86
2023/12/01 09:17:29;;;;;;;0.87;0.87;;;10.50;65.10;;;;;;4935452;29;20199;-85
2023/12/01 09:20:00;;;;;;;1.73;1.63;;;10.60;65.60;;;;;;4937680;29;20606;-89
2023/12/01 09:22:30;;;;;;;7.23;2.30;;;10.60;65.70;;;;;;4935479;29;20647;-89
2023/12/01 09:25:05;;;;;;;5.83;2.33;;;10.60;65.50;;;;;;4933213;29;20227;-89
2023/12/01 09:27:39;;;;;;;2.60;1.70;;;10.70;65.50;;;;;;4936131;29;20274;-90
2023/12/01 09:30:15;;;;;;;0.93;0.93;;;10.70;65.60;;;;;;4933983;29;20214;-88
2023/12/01 09:32:48;;;;;;;1.37;1.27;;;10.70;65.50;;;;;;4924206;29;20205;-91
2023/12/01 09:35:23;;;;;;;4.30;2.30;;;10.70;65.80;;;;;;4943297;29;20231;-91
2023/12/01 09:38:13;;;;;;;3.50;2.47;;;10.70;65.70;;;;;;4934428;29;20210;-93
2023/12/01 09:40:49;;;;;;;2.27;2.07;;;10.80;65.80;;;;;;4945968;29;20238;-93
2023/12/01 09:43:27;;;;;;;2.50;2.23;;;10.80;65.50;;;;;;4940674;29;20206;-94
2023/12/01 09:45:57;;;;;;;3.43;3.17;;;10.80;65.50;;;;;;4942979;29;20226;-87
2023/12/01 09:48:26;;;;;;;2.30;1.07;;;10.90;65.70;;;;;;4938692;29;20228;-92
2023/12/01 09:51:10;;;;;;;4.10;2.50;;;10.90;65.80;;;;;;4937091;29;20253;-91
2023/12/01 09:53:43;;;;;;;2.03;1.93;;;10.90;66.10;;;;;;4942430;29;20200;-93
2023/12/01 09:56:12;;;;;;;2.67;2.13;;;10.90;66.20;;;;;;4936896;29;20196;-90
2023/12/01 09:58:44;;;;;;;3.10;2.17;;;10.90;66.60;;;;;;4935714;29;20205;-90
2023/12/01 10:01:27;;;;;;;3.30;3.00;;;10.90;66.60;;;;;;4935718;29;20203;-91
2023/12/01 10:03:57;;;;;;;1.77;1.00;;;10.90;66.30;;;;;;4935799;29;20188;-91
2023/12/01 10:06:28;;;;;;;1.80;1.67;;;10.90;66.80;;;;;;4944397;29;20243;-90
2023/12/01 10:08:58;;;;;;;1.53;1.40;;;10.90;66.10;;;;;;4936837;29;20183;-90
2023/12/01 10:11:27;;;;;;;4.97;3.00;;;11.00;66.10;;;;;;4923559;29;20204;-91
2023/12/01 10:13:57;;;;;;;2.97;2.27;;;11.00;66.10;;;;;;4937010;29;20202;-92
2023/12/01 10:16:38;;;;;;;1.50;1.40;;;11.00;66.10;;;;;;4935331;29;20199;-88
2023/12/01 10:19:11;;;;;;;2.27;1.93;;;11.10;66.00;;;;;;4937049;29;20199;-91
2023/12/01 10:21:47;;;;;;;1.93;1.83;;;11.10;65.40;;;;;;4936234;29;20236;-89
2023/12/01 10:24:17;;;;;;;3.13;1.40;;;11.10;65.20;;;;;;4920070;29;20283;-86
2023/12/01 10:26:53;;;;;;;4.53;1.07;;;11.10;64.70;;;;;;4930392;29;20718;-89
2023/12/01 10:29:39;;;;;;;2.40;2.03;;;11.10;64.30;;;;;;4939775;29;20194;-87
2023/12/01 10:32:11;;;;;;;1.47;1.37;;;11.10;64.40;;;;;;4936550;29;20225;-91
2023/12/01 10:34:54;;;;;;;5.10;1.87;;;11.10;64.90;;;;;;4933362;29;20234;-90
2023/12/01 10:37:26;;;;;;;2.40;1.67;;;11.20;65.30;;;;;;4938663;29;20211;-88
2023/12/01 10:39:57;;;;;;;2.13;1.93;;;11.20;65.80;;;;;;4938004;29;20207;-89
2023/12/01 10:42:28;;;;;;;1.70;1.10;;;11.20;65.90;;;;;;4936180;29;20275;-90
2023/12/01 10:45:03;;;;;;;5.17;2.27;;;11.20;66.00;;;;;;4921503;29;20628;-91
2023/12/01 10:47:38;;;;;;;3.83;2.70;;;11.20;66.30;;;;;;4936052;29;20205;-90
2023/12/01 10:50:08;;;;;;;3.20;2.67;;;11.20;66.50;;;;;;4921100;29;20209;-93
2023/12/01 10:52:55;;;;;;;1.87;1.70;;;11.20;66.90;;;;;;4937805;29;20215;-91
2023/12/01 10:55:26;;;;;;;4.50;3.33;;;11.20;67.20;;;;;;4945209;29;20250;-92
2023/12/01 10:57:56;;;;;;;2.27;1.67;;;11.30;67.50;;;;;;4949507;29;20202;-90
2023/12/01 11:00:30;;;;;;;3.33;1.63;;;11.40;67.80;;;;;;4936904;29;20204;-93
2023/12/01 11:03:04;;;;;;;18.37;3.77;;;11.50;68.10;;;;;;4936766;29;20198;-91
2023/12/01 11:05:37;;;;;;;3.10;2.83;;;11.60;68.10;;;;;;4934587;29;20231;-91
2023/12/01 11:08:26;;;;;;;5.53;3.13;;;11.70;68.20;;;;;;4923236;29;20199;-94
2023/12/01 11:11:16;;;;;;;5.17;4.03;;;11.80;68.50;;;;;;4936953;29;20291;-92
2023/12/01 11:14:09;;;;;;;7.03;1.77;;;11.90;68.60;;;;;;4936190;29;20231;-91
2023/12/01 11:16:47;;;;;;;3.03;2.73;;;12.00;68.70;;;;;;4932315;29;20221;-92
2023/12/01 11:19:38;;;;;;;2.17;1.93;;;12.20;68.40;;;;;;4935198;29;20198;-90
2023/12/01 11:22:27;;;;;;;4.53;2.23;;;12.30;68.50;;;;;;4945300;29;20203;-91
2023/12/01 11:25:02;;;;;;;6.27;2.67;;;12.30;68.20;;;;;;4937537;29;20202;-92
2023/12/01 11:27:36;;;;;;;0.97;0.97;;;12.40;67.60;;;;;;4938619;29;20198;-92
2023/12/01 11:30:12;;;;;;;2.67;1.40;;;12.40;67.90;;;;;;4934664;29;20199;-91
2023/12/01 11:33:03;;;;;;;2.07;1.70;;;12.50;68.20;;;;;;4937352;29;20273;-91
2023/12/01 11:35:33;;;;;;;2.97;2.10;;;12.50;68.20;;;;;;4939028;29;20237;-91
2023/12/01 11:38:09;;;;;;;3.33;2.00;;;12.60;68.30;;;;;;4921674;29;20722;-91
2023/12/01 11:40:52;;;;;;;1.13;0.60;;;12.70;68.30;;;;;;4941926;29;20206;-93
2023/12/01 11:43:24;;;;;;;1.13;0.80;;;12.80;68.30;;;;;;4933937;29;20206;-92
2023/12/01 11:46:10;;;;;;;2.40;2.20;;;12.90;68.10;;;;;;4938697;29;20246;-90
2023/12/01 11:48:40;;;;;;;1.70;0.70;;;12.90;67.70;;;;;;4936781;29;20656;-92
2023/12/01 11:51:09;;;;;;;1.03;0.93;;;12.90;67.50;;;;;;4939262;29;20207;-89
2023/12/01 11:53:56;;;;;;;0.70;0.70;;;13.00;67.80;;;;;;4940010;29;20219;-92
2023/12/01 11:56:31;;;;;;;0.70;0.70;;;13.10;67.90;;;;;;4920839;29;20226;-92
2023/12/01 11:59:02;;;;;;;1.73;1.63;;;13.10;67.70;;;;;;4947538;29;20191;-91
2023/12/01 12:01:33;;;;;;;0.97;0.83;;;13.20;68.00;;;;;;4943920;29;20227;-91
2023/12/01 12:04:04;;;;;;;4.53;1.63;;;13.20;68.10;;;;;;4940991;29;20199;-90
2023/12/01 12:06:36;;;;;;;2.40;1.70;;;13.30;68.10;;;;;;4941581;29;20202;-92
2023/12/01 12:09:12;;;;;;;3.07;2.47;;;13.40;68.10;;;;;;4946222;29;20214;-90
2023/12/01 12:11:50;;;;;;;1.37;1.03;;;13.40;68.20;;;;;;4941400;29;20663;-89
2023/12/01 12:14:23;;;;;;;1.10;1.07;;;13.50;68.20;;;;;;4933955;29;20208;-90
2023/12/01 12:16:55;;;;;;;4.87;2.63;;;13.50;68.30;;;;;;4934976;29;20713;-92
2023/12/01 12:19:42;;;;;;;3.27;2.20;;;13.50;68.10;;;;;;4939064;29;20561;-91
2023/12/01 12:22:17;;;;;;;10.47;2.60;;;13.60;68.00;;;;;;4940615;29;20266;-92
2023/12/01 12:24:47;;;;;;;1.50;1.23;;;13.70;68.10;;;;;;4940574;29;20686;-91
2023/12/01 12:27:20;;;;;;;2.23;1.30;;;13.70;68.20;;;;;;4940396;29;20203;-92
2023/12/01 12:29:49;;;;;;;2.73;1.77;;;13.70;68.10;;;;;;4941375;29;20276;-90
2023/12/01 12:32:22;;;;;;;0.90;0.83;;;13.70;68.10;;;;;;4939328;29;20619;-92
2023/12/01 12:34:57;;;;;;;4.40;1.67;;;13.70;68.20;;;;;;4939879;29;20211;-91
2023/12/01 12:37:27;;;;;;;1.00;1.00;;;13.70;68.20;;;;;;4920057;29;20314;-92
2023/12/01 12:39:57;;;;;;;1.53;1.43;;;13.80;68.50;;;;;;4902846;29;20259;-94
2023/12/01 12:42:28;;;;;;;3.23;1.17;;;13.80;68.60;;;;;;4919684;29;20196;-91
2023/12/01 12:44:57;;;;;;;1.47;1.37;;;13.80;68.70;;;;;;4919718;29;20649;-92
2023/12/01 12:47:26;;;;;;;1.47;1.37;;;13.80;69.40;;;;;;4917189;29;20291;-91
2023/12/01 12:49:59;;;;;;;2.80;1.77;;;13.80;69.30;;;;;;4919226;29;20203;-92
2023/12/01 12:52:27;;;;;;;3.63;2.70;;;13.80;69.60;;;;;;4917828;29;20613;-94
2023/12/01 12:55:09;;;;;;;5.90;1.80;;;13.80;69.80;;;;;;4920052;29;20210;-91
2023/12/01 12:57:40;;;;;;;1.77;1.37;;;13.70;69.90;;;;;;4914652;29;20262;-91
2023/12/01 13:00:11;;;;;;;3.00;1.10;;;13.80;70.00;;;;;;4920881;29;20195;-91
2023/12/01 13:02:47;;;;;;;4.80;1.93;;;13.80;70.00;;;;;;4921623;29;20574;-91
2023/12/01 13:05:27;;;;;;;2.17;1.83;;;13.80;70.20;;;;;;4914417;29;20258;-90
2023/12/01 13:08:02;;;;;;;7.23;2.23;;;13.80;70.20;;;;;;4903329;29;20200;-92
2023/12/01 13:10:33;;;;;;;5.00;2.10;;;13.70;70.00;;;;;;4904530;29;20234;-91
2023/12/01 13:13:03;;;;;;;2.27;1.53;;;13.70;69.90;;;;;;4923184;29;20283;-91
2023/12/01 13:15:43;;;;;;;1.27;1.17;;;13.70;70.10;;;;;;4905371;29;20196;-92
2023/12/01 13:18:12;;;;;;;1.60;1.50;;;13.70;70.20;;;;;;4916251;29;20200;-90
2023/12/01 13:20:43;;;;;;;2.67;1.17;;;13.70;70.40;;;;;;4912933;29;20645;-92
2023/12/01 13:23:14;;;;;;;3.80;1.63;;;13.70;70.60;;;;;;4919875;29;20609;-92
2023/12/01 13:25:43;;;;;;;1.33;1.13;;;13.60;70.70;;;;;;4919502;29;20202;-93
2023/12/01 13:28:26;;;;;;;1.93;1.80;;;13.60;70.90;;;;;;4919863;29;20204;-91